Altamont, North Carolina
Current Conditions -  °F | °C
As of 8:15 PM on Sunday 21 Dec 2014 (Local Time) from KTNB Reporting Station
Haze Haze  
Wind Chill: -1°   Ceiling: NA
Heat Index:   Visibility: 2mi
Dew Point:   Wind: 5mph
Humidity: 100%   Direction: 130°SE
Pressure: 30.15"   Gusts: NA
Location:  36.0227°N, 81.9499°W
Report Text: KTNB 220115Z AUTO 13004KT 2SM BR 02/02 A3015 RMK AO2 SKY OBSCURED T00160016
Loading
Personal Weather Stations






























Interactive Weather Map New forecast layout! Learn more

10-Day Weather Forecast

Advertisements
Track Severe Weather on mobile